Aviation Digital Data Service (ADDS)

Output produced by METARs form (2224 UTC 20 August 2014)
found at http://aviationweather.gov/adds/metars/
 
KDEN 202221Z 2022/2124 14006KT P6SM SCT080 BKN120 
     FM202300 13012KT P6SM SCT080 BKN120 
     TEMPO 2023/2101 VRB20G35KT -TSRA BKN070CB 
     FM210100 32007KT P6SM SCT080 BKN120 
     FM210300 24007KT P6SM SCT120 SCT200 
     FM210600 20010KT P6SM SCT120 SCT200 
     FM211500 VRB05KT P6SM FEW120 FEW200 
     FM211800 12005KT P6SM FEW080 SCT120